sensor_id;sensor_type;location;lat;lon;timestamp;temperature;humidity
1155;DHT22;566;48.414;9.118;2023-06-10T00:01:39;17.00;87.70
1155;DHT22;566;48.414;9.118;2023-06-10T00:04:06;17.00;87.80
1155;DHT22;566;48.414;9.118;2023-06-10T00:06:31;17.00;87.90
1155;DHT22;566;48.414;9.118;2023-06-10T00:09:01;16.90;88.20
1155;DHT22;566;48.414;9.118;2023-06-10T00:11:26;16.90;88.30
1155;DHT22;566;48.414;9.118;2023-06-10T00:13:52;16.90;88.20
1155;DHT22;566;48.414;9.118;2023-06-10T00:16:18;17.00;88.20
1155;DHT22;566;48.414;9.118;2023-06-10T00:18:44;17.00;88.20
1155;DHT22;566;48.414;9.118;2023-06-10T00:21:09;16.90;88.40
1155;DHT22;566;48.414;9.118;2023-06-10T00:23:35;16.90;88.60
1155;DHT22;566;48.414;9.118;2023-06-10T00:26:03;16.90;88.80
1155;DHT22;566;48.414;9.118;2023-06-10T00:28:29;16.90;88.80
1155;DHT22;566;48.414;9.118;2023-06-10T00:30:55;16.90;89.00
1155;DHT22;566;48.414;9.118;2023-06-10T00:33:21;16.80;89.30
1155;DHT22;566;48.414;9.118;2023-06-10T00:35:46;16.80;89.40
1155;DHT22;566;48.414;9.118;2023-06-10T00:38:13;16.80;89.50
1155;DHT22;566;48.414;9.118;2023-06-10T00:40:40;16.80;89.70
1155;DHT22;566;48.414;9.118;2023-06-10T00:43:09;16.70;90.20
1155;DHT22;566;48.414;9.118;2023-06-10T00:45:34;16.70;90.30
1155;DHT22;566;48.414;9.118;2023-06-10T00:48:01;16.70;90.40
1155;DHT22;566;48.414;9.118;2023-06-10T00:50:27;16.70;90.50
1155;DHT22;566;48.414;9.118;2023-06-10T00:52:54;16.80;90.50
1155;DHT22;566;48.414;9.118;2023-06-10T00:55:20;16.80;90.40
1155;DHT22;566;48.414;9.118;2023-06-10T00:57:46;16.80;90.40
1155;DHT22;566;48.414;9.118;2023-06-10T01:00:14;16.80;90.50
1155;DHT22;566;48.414;9.118;2023-06-10T01:02:41;16.80;90.60
1155;DHT22;566;48.414;9.118;2023-06-10T01:05:08;16.80;90.70
1155;DHT22;566;48.414;9.118;2023-06-10T01:10:25;16.80;90.80
1155;DHT22;566;48.414;9.118;2023-06-10T01:13:07;16.80;90.80
1155;DHT22;566;48.414;9.118;2023-06-10T01:15:37;16.70;91.20
1155;DHT22;566;48.414;9.118;2023-06-10T01:18:04;16.50;91.30
1155;DHT22;566;48.414;9.118;2023-06-10T01:20:31;16.20;91.70
1155;DHT22;566;48.414;9.118;2023-06-10T01:23:01;16.00;92.20
1155;DHT22;566;48.414;9.118;2023-06-10T01:25:29;15.70;93.00
1155;DHT22;566;48.414;9.118;2023-06-10T01:28:03;15.50;93.50
1155;DHT22;566;48.414;9.118;2023-06-10T01:30:33;15.30;94.00
1155;DHT22;566;48.414;9.118;2023-06-10T01:33:04;15.10;94.40
1155;DHT22;566;48.414;9.118;2023-06-10T01:35:36;14.90;94.80
1155;DHT22;566;48.414;9.118;2023-06-10T01:38:03;14.80;95.30
1155;DHT22;566;48.414;9.118;2023-06-10T01:40:29;14.80;95.50
1155;DHT22;566;48.414;9.118;2023-06-10T01:42:56;14.70;95.50
1155;DHT22;566;48.414;9.118;2023-06-10T01:45:21;14.50;95.50
1155;DHT22;566;48.414;9.118;2023-06-10T01:47:47;14.40;95.80
1155;DHT22;566;48.414;9.118;2023-06-10T01:50:13;14.20;95.80
1155;DHT22;566;48.414;9.118;2023-06-10T01:52:38;14.10;95.70
1155;DHT22;566;48.414;9.118;2023-06-10T01:55:04;14.00;95.50
1155;DHT22;566;48.414;9.118;2023-06-10T01:57:30;14.00;95.80
1155;DHT22;566;48.414;9.118;2023-06-10T01:59:55;14.00;95.80
1155;DHT22;566;48.414;9.118;2023-06-10T02:02:21;14.00;95.80
1155;DHT22;566;48.414;9.118;2023-06-10T02:04:47;13.90;95.80
1155;DHT22;566;48.414;9.118;2023-06-10T02:07:13;13.90;95.70
1155;DHT22;566;48.414;9.118;2023-06-10T02:09:38;13.90;95.40
1155;DHT22;566;48.414;9.118;2023-06-10T02:12:04;13.80;95.40
1155;DHT22;566;48.414;9.118;2023-06-10T02:14:32;13.70;95.00
1155;DHT22;566;48.414;9.118;2023-06-10T02:16:58;13.60;95.00
1155;DHT22;566;48.414;9.118;2023-06-10T02:19:23;13.60;94.70
1155;DHT22;566;48.414;9.118;2023-06-10T02:21:50;13.50;94.70
1155;DHT22;566;48.414;9.118;2023-06-10T02:24:16;13.40;94.30
1155;DHT22;566;48.414;9.118;2023-06-10T02:26:41;13.30;93.90
1155;DHT22;566;48.414;9.118;2023-06-10T02:29:07;13.20;93.80
1155;DHT22;566;48.414;9.118;2023-06-10T02:31:33;13.20;93.80
1155;DHT22;566;48.414;9.118;2023-06-10T02:34:01;13.10;93.40
1155;DHT22;566;48.414;9.118;2023-06-10T02:36:27;13.10;92.60
1155;DHT22;566;48.414;9.118;2023-06-10T02:38:53;13.20;92.80
1155;DHT22;566;48.414;9.118;2023-06-10T02:41:18;13.20;93.10
1155;DHT22;566;48.414;9.118;2023-06-10T02:43:44;13.20;93.00
1155;DHT22;566;48.414;9.118;2023-06-10T02:46:10;13.10;93.40
1155;DHT22;566;48.414;9.118;2023-06-10T02:48:43;13.10;93.00
1155;DHT22;566;48.414;9.118;2023-06-10T02:51:11;13.10;92.60
1155;DHT22;566;48.414;9.118;2023-06-10T02:53:37;13.20;93.10
1155;DHT22;566;48.414;9.118;2023-06-10T02:56:03;13.20;93.20
1155;DHT22;566;48.414;9.118;2023-06-10T02:58:29;13.20;93.80
1155;DHT22;566;48.414;9.118;2023-06-10T03:00:54;13.10;93.70
1155;DHT22;566;48.414;9.118;2023-06-10T03:03:20;13.10;93.70
1155;DHT22;566;48.414;9.118;2023-06-10T03:05:48;13.00;93.20
1155;DHT22;566;48.414;9.118;2023-06-10T03:08:13;12.90;92.20
1155;DHT22;566;48.414;9.118;2023-06-10T03:10:39;13.00;92.30
1155;DHT22;566;48.414;9.118;2023-06-10T03:13:05;13.00;92.30
1155;DHT22;566;48.414;9.118;2023-06-10T03:15:30;13.10;92.70
1155;DHT22;566;48.414;9.118;2023-06-10T03:17:59;13.20;93.20
1155;DHT22;566;48.414;9.118;2023-06-10T03:20:25;13.10;93.20
1155;DHT22;566;48.414;9.118;2023-06-10T03:22:51;13.10;92.70
1155;DHT22;566;48.414;9.118;2023-06-10T03:25:16;13.10;92.30
1155;DHT22;566;48.414;9.118;2023-06-10T03:27:42;13.10;92.30
1155;DHT22;566;48.414;9.118;2023-06-10T03:30:08;13.10;92.80
1155;DHT22;566;48.414;9.118;2023-06-10T03:32:34;13.00;92.80
1155;DHT22;566;48.414;9.118;2023-06-10T03:35:01;13.00;92.70
1155;DHT22;566;48.414;9.118;2023-06-10T03:37:26;12.80;93.40
1155;DHT22;566;48.414;9.118;2023-06-10T03:39:52;12.70;92.90
1155;DHT22;566;48.414;9.118;2023-06-10T03:42:17;12.60;92.20
1155;DHT22;566;48.414;9.118;2023-06-10T03:44:43;12.60;91.20
1155;DHT22;566;48.414;9.118;2023-06-10T03:47:09;12.60;90.50
1155;DHT22;566;48.414;9.118;2023-06-10T03:49:34;12.60;90.30
1155;DHT22;566;48.414;9.118;2023-06-10T03:52:01;12.60;90.30
1155;DHT22;566;48.414;9.118;2023-06-10T03:54:27;12.60;90.40
1155;DHT22;566;48.414;9.118;2023-06-10T03:56:53;12.70;90.70
1155;DHT22;566;48.414;9.118;2023-06-10T03:59:18;12.70;90.70
1155;DHT22;566;48.414;9.118;2023-06-10T04:01:44;12.70;90.40
1155;DHT22;566;48.414;9.118;2023-06-10T04:04:15;12.80;90.30
1155;DHT22;566;48.414;9.118;2023-06-10T04:06:42;12.80;90.30
1155;DHT22;566;48.414;9.118;2023-06-10T04:09:09;12.90;90.80
1155;DHT22;566;48.414;9.118;2023-06-10T04:11:35;13.00;91.50
1155;DHT22;566;48.414;9.118;2023-06-10T04:14:01;13.00;92.10
1155;DHT22;566;48.414;9.118;2023-06-10T04:16:27;13.10;92.60
1155;DHT22;566;48.414;9.118;2023-06-10T04:18:52;13.10;93.00
1155;DHT22;566;48.414;9.118;2023-06-10T04:21:18;13.10;93.00
1155;DHT22;566;48.414;9.118;2023-06-10T04:23:44;13.10;92.90
1155;DHT22;566;48.414;9.118;2023-06-10T04:26:09;13.10;92.50
1155;DHT22;566;48.414;9.118;2023-06-10T04:28:37;13.10;92.20
1155;DHT22;566;48.414;9.118;2023-06-10T04:31:03;13.10;92.30
1155;DHT22;566;48.414;9.118;2023-06-10T04:33:32;13.20;92.60
1155;DHT22;566;48.414;9.118;2023-06-10T04:35:58;13.20;92.80
1155;DHT22;566;48.414;9.118;2023-06-10T04:38:24;13.20;92.70
1155;DHT22;566;48.414;9.118;2023-06-10T04:40:49;13.30;92.50
1155;DHT22;566;48.414;9.118;2023-06-10T04:43:15;13.30;92.30
1155;DHT22;566;48.414;9.118;2023-06-10T04:45:41;13.30;92.50
1155;DHT22;566;48.414;9.118;2023-06-10T04:48:10;13.40;92.50
1155;DHT22;566;48.414;9.118;2023-06-10T04:50:36;13.50;92.50
1155;DHT22;566;48.414;9.118;2023-06-10T04:53:02;13.50;92.40
1155;DHT22;566;48.414;9.118;2023-06-10T04:55:28;13.60;92.30
1155;DHT22;566;48.414;9.118;2023-06-10T04:57:53;13.60;92.30
1155;DHT22;566;48.414;9.118;2023-06-10T05:00:19;13.70;92.30
1155;DHT22;566;48.414;9.118;2023-06-10T05:02:44;13.70;92.40
1155;DHT22;566;48.414;9.118;2023-06-10T05:05:10;13.80;93.00
1155;DHT22;566;48.414;9.118;2023-06-10T05:07:36;13.90;93.00
1155;DHT22;566;48.414;9.118;2023-06-10T05:10:02;14.10;93.20
1155;DHT22;566;48.414;9.118;2023-06-10T05:12:28;14.20;93.60
1155;DHT22;566;48.414;9.118;2023-06-10T05:14:54;14.30;93.70
1155;DHT22;566;48.414;9.118;2023-06-10T05:17:20;14.40;93.90
1155;DHT22;566;48.414;9.118;2023-06-10T05:19:45;14.50;94.80
1155;DHT22;566;48.414;9.118;2023-06-10T05:22:12;14.60;95.70
1155;DHT22;566;48.414;9.118;2023-06-10T05:24:38;14.80;96.10
1155;DHT22;566;48.414;9.118;2023-06-10T05:27:04;15.00;96.50
1155;DHT22;566;48.414;9.118;2023-06-10T05:29:32;15.10;97.20
1155;DHT22;566;48.414;9.118;2023-06-10T05:31:57;15.30;97.30
1155;DHT22;566;48.414;9.118;2023-06-10T05:34:25;15.50;97.40
1155;DHT22;566;48.414;9.118;2023-06-10T05:36:51;15.60;97.00
1155;DHT22;566;48.414;9.118;2023-06-10T05:39:16;15.90;97.20
1155;DHT22;566;48.414;9.118;2023-06-10T05:41:42;16.00;97.10
1155;DHT22;566;48.414;9.118;2023-06-10T05:44:07;16.20;96.90
1155;DHT22;566;48.414;9.118;2023-06-10T05:46:33;16.40;96.80
1155;DHT22;566;48.414;9.118;2023-06-10T05:48:59;16.40;96.60
1155;DHT22;566;48.414;9.118;2023-06-10T05:51:24;16.50;96.30
1155;DHT22;566;48.414;9.118;2023-06-10T05:53:50;16.70;96.20
1155;DHT22;566;48.414;9.118;2023-06-10T05:56:16;17.00;95.80
1155;DHT22;566;48.414;9.118;2023-06-10T05:58:44;17.20;95.80
1155;DHT22;566;48.414;9.118;2023-06-10T06:01:10;17.20;94.90
1155;DHT22;566;48.414;9.118;2023-06-10T06:03:35;17.30;95.10
1155;DHT22;566;48.414;9.118;2023-06-10T06:06:02;17.30;95.00
1155;DHT22;566;48.414;9.118;2023-06-10T06:08:27;17.50;94.90
1155;DHT22;566;48.414;9.118;2023-06-10T06:10:53;17.60;94.90
1155;DHT22;566;48.414;9.118;2023-06-10T06:13:18;17.80;94.20
1155;DHT22;566;48.414;9.118;2023-06-10T06:15:47;17.90;93.50
1155;DHT22;566;48.414;9.118;2023-06-10T06:18:13;18.20;93.40
1155;DHT22;566;48.414;9.118;2023-06-10T06:20:38;18.30;92.90
1155;DHT22;566;48.414;9.118;2023-06-10T06:23:04;18.30;93.20
1155;DHT22;566;48.414;9.118;2023-06-10T06:25:29;18.30;92.90
1155;DHT22;566;48.414;9.118;2023-06-10T06:27:55;18.30;93.20
1155;DHT22;566;48.414;9.118;2023-06-10T06:30:20;18.50;92.80
1155;DHT22;566;48.414;9.118;2023-06-10T06:32:46;18.70;92.80
1155;DHT22;566;48.414;9.118;2023-06-10T06:35:12;18.80;91.90
1155;DHT22;566;48.414;9.118;2023-06-10T06:37:37;18.70;92.10
1155;DHT22;566;48.414;9.118;2023-06-10T06:40:03;18.70;92.30
1155;DHT22;566;48.414;9.118;2023-06-10T06:42:29;19.00;90.90
1155;DHT22;566;48.414;9.118;2023-06-10T06:44:57;19.30;90.80
1155;DHT22;566;48.414;9.118;2023-06-10T06:47:23;19.50;89.90
1155;DHT22;566;48.414;9.118;2023-06-10T06:49:49;19.70;89.60
1155;DHT22;566;48.414;9.118;2023-06-10T06:52:18;19.90;89.20
1155;DHT22;566;48.414;9.118;2023-06-10T06:54:44;20.10;88.30
1155;DHT22;566;48.414;9.118;2023-06-10T06:57:10;20.10;89.20
1155;DHT22;566;48.414;9.118;2023-06-10T06:59:36;20.00;89.10
1155;DHT22;566;48.414;9.118;2023-06-10T07:02:03;20.00;88.80
1155;DHT22;566;48.414;9.118;2023-06-10T07:04:28;20.00;89.10
1155;DHT22;566;48.414;9.118;2023-06-10T07:06:54;20.20;88.80
1155;DHT22;566;48.414;9.118;2023-06-10T07:09:21;20.20;88.90
1155;DHT22;566;48.414;9.118;2023-06-10T07:11:47;20.00;89.60
1155;DHT22;566;48.414;9.118;2023-06-10T07:14:12;20.00;89.50
1155;DHT22;566;48.414;9.118;2023-06-10T07:16:38;20.00;89.70
1155;DHT22;566;48.414;9.118;2023-06-10T07:19:03;20.00;89.50
1155;DHT22;566;48.414;9.118;2023-06-10T07:21:30;20.10;89.70
1155;DHT22;566;48.414;9.118;2023-06-10T07:23:55;20.50;89.00
1155;DHT22;566;48.414;9.118;2023-06-10T07:26:23;21.40;87.10
1155;DHT22;566;48.414;9.118;2023-06-10T07:28:48;21.60;85.70
1155;DHT22;566;48.414;9.118;2023-06-10T07:31:14;22.10;84.60
1155;DHT22;566;48.414;9.118;2023-06-10T07:33:40;22.80;83.00
1155;DHT22;566;48.414;9.118;2023-06-10T07:36:06;23.40;80.50
1155;DHT22;566;48.414;9.118;2023-06-10T07:38:32;23.40;81.00
1155;DHT22;566;48.414;9.118;2023-06-10T07:40:57;23.50;80.40
1155;DHT22;566;48.414;9.118;2023-06-10T07:43:24;24.00;78.60
1155;DHT22;566;48.414;9.118;2023-06-10T07:45:50;24.20;78.00
1155;DHT22;566;48.414;9.118;2023-06-10T07:48:15;23.90;78.70
1155;DHT22;566;48.414;9.118;2023-06-10T07:50:44;24.50;78.00
1155;DHT22;566;48.414;9.118;2023-06-10T07:53:10;25.00;76.30
1155;DHT22;566;48.414;9.118;2023-06-10T07:55:36;24.90;75.20
1155;DHT22;566;48.414;9.118;2023-06-10T07:58:01;24.00;77.50
1155;DHT22;566;48.414;9.118;2023-06-10T08:00:27;23.80;79.20
1155;DHT22;566;48.414;9.118;2023-06-10T08:02:53;24.40;77.10
1155;DHT22;566;48.414;9.118;2023-06-10T08:05:18;24.60;77.00
1155;DHT22;566;48.414;9.118;2023-06-10T08:07:44;24.70;76.20
1155;DHT22;566;48.414;9.118;2023-06-10T08:10:10;25.10;74.70
1155;DHT22;566;48.414;9.118;2023-06-10T08:12:36;25.10;75.20
1155;DHT22;566;48.414;9.118;2023-06-10T08:15:02;25.40;75.10
1155;DHT22;566;48.414;9.118;2023-06-10T08:17:30;26.10;73.10
1155;DHT22;566;48.414;9.118;2023-06-10T08:19:55;26.30;72.30
1155;DHT22;566;48.414;9.118;2023-06-10T08:22:21;26.50;72.70
1155;DHT22;566;48.414;9.118;2023-06-10T08:24:47;27.00;70.60
1155;DHT22;566;48.414;9.118;2023-06-10T08:27:12;27.10;70.20
1155;DHT22;566;48.414;9.118;2023-06-10T08:29:39;26.80;69.60
1155;DHT22;566;48.414;9.118;2023-06-10T08:32:05;26.50;71.00
1155;DHT22;566;48.414;9.118;2023-06-10T08:34:34;25.80;72.50
1155;DHT22;566;48.414;9.118;2023-06-10T08:37:03;25.60;73.50
1155;DHT22;566;48.414;9.118;2023-06-10T08:39:29;26.20;71.80
1155;DHT22;566;48.414;9.118;2023-06-10T08:44:33;27.80;68.20
1155;DHT22;566;48.414;9.118;2023-06-10T08:47:06;28.10;67.40
1155;DHT22;566;48.414;9.118;2023-06-10T08:49:38;27.90;68.50
1155;DHT22;566;48.414;9.118;2023-06-10T08:52:04;27.60;67.60
1155;DHT22;566;48.414;9.118;2023-06-10T08:54:33;27.80;68.00
1155;DHT22;566;48.414;9.118;2023-06-10T08:57:05;27.70;68.50
1155;DHT22;566;48.414;9.118;2023-06-10T08:59:33;28.10;68.30
1155;DHT22;566;48.414;9.118;2023-06-10T09:01:59;28.00;67.20
1155;DHT22;566;48.414;9.118;2023-06-10T09:04:26;28.40;66.20
1155;DHT22;566;48.414;9.118;2023-06-10T09:06:53;28.00;67.20
1155;DHT22;566;48.414;9.118;2023-06-10T09:09:22;27.30;68.20
1155;DHT22;566;48.414;9.118;2023-06-10T09:11:48;27.30;68.80
1155;DHT22;566;48.414;9.118;2023-06-10T09:14:13;27.10;69.30
1155;DHT22;566;48.414;9.118;2023-06-10T09:16:40;27.30;68.70
1155;DHT22;566;48.414;9.118;2023-06-10T09:19:07;27.30;69.50
1155;DHT22;566;48.414;9.118;2023-06-10T09:21:35;27.70;68.90
1155;DHT22;566;48.414;9.118;2023-06-10T09:24:01;27.80;68.00
1155;DHT22;566;48.414;9.118;2023-06-10T09:26:30;28.10;67.20
1155;DHT22;566;48.414;9.118;2023-06-10T09:29:08;28.60;65.30
1155;DHT22;566;48.414;9.118;2023-06-10T09:31:35;27.60;67.70
1155;DHT22;566;48.414;9.118;2023-06-10T09:34:08;28.00;67.40
1155;DHT22;566;48.414;9.118;2023-06-10T09:36:35;29.40;65.70
1155;DHT22;566;48.414;9.118;2023-06-10T09:39:05;30.90;58.90
1155;DHT22;566;48.414;9.118;2023-06-10T09:41:40;32.00;55.00
1155;DHT22;566;48.414;9.118;2023-06-10T09:44:15;32.30;56.80
1155;DHT22;566;48.414;9.118;2023-06-10T09:46:42;33.00;56.00
1155;DHT22;566;48.414;9.118;2023-06-10T09:49:11;33.80;53.30
1155;DHT22;566;48.414;9.118;2023-06-10T09:51:36;34.10;52.60
1155;DHT22;566;48.414;9.118;2023-06-10T09:54:03;34.40;51.50
1155;DHT22;566;48.414;9.118;2023-06-10T09:56:35;33.40;51.50
1155;DHT22;566;48.414;9.118;2023-06-10T09:59:04;32.20;53.90
1155;DHT22;566;48.414;9.118;2023-06-10T10:01:31;32.30;54.10
1155;DHT22;566;48.414;9.118;2023-06-10T10:03:59;31.50;54.80
1155;DHT22;566;48.414;9.118;2023-06-10T10:06:25;31.20;54.70
1155;DHT22;566;48.414;9.118;2023-06-10T10:08:51;31.40;56.70
1155;DHT22;566;48.414;9.118;2023-06-10T10:11:22;31.90;55.50
1155;DHT22;566;48.414;9.118;2023-06-10T10:13:49;31.90;54.90
1155;DHT22;566;48.414;9.118;2023-06-10T10:16:20;32.10;53.70
1155;DHT22;566;48.414;9.118;2023-06-10T10:18:56;32.40;54.00
1155;DHT22;566;48.414;9.118;2023-06-10T10:21:27;32.50;53.10
1155;DHT22;566;48.414;9.118;2023-06-10T10:24:16;32.30;53.60
1155;DHT22;566;48.414;9.118;2023-06-10T10:26:43;31.50;54.80
1155;DHT22;566;48.414;9.118;2023-06-10T10:29:24;30.40;56.70
1155;DHT22;566;48.414;9.118;2023-06-10T10:31:51;30.60;57.10
1155;DHT22;566;48.414;9.118;2023-06-10T10:34:53;31.10;56.80
1155;DHT22;566;48.414;9.118;2023-06-10T10:37:22;32.30;55.70
1155;DHT22;566;48.414;9.118;2023-06-10T10:39:48;32.80;52.90
1155;DHT22;566;48.414;9.118;2023-06-10T10:42:14;32.00;53.30
1155;DHT22;566;48.414;9.118;2023-06-10T10:44:42;32.50;54.80
1155;DHT22;566;48.414;9.118;2023-06-10T10:47:09;32.40;53.10
1155;DHT22;566;48.414;9.118;2023-06-10T10:49:36;32.30;53.40
1155;DHT22;566;48.414;9.118;2023-06-10T10:52:03;32.20;54.60
1155;DHT22;566;48.414;9.118;2023-06-10T10:54:35;32.80;52.90
1155;DHT22;566;48.414;9.118;2023-06-10T10:57:24;32.60;53.30
1155;DHT22;566;48.414;9.118;2023-06-10T10:59:56;30.50;56.00
1155;DHT22;566;48.414;9.118;2023-06-10T11:02:41;28.50;59.70
1155;DHT22;566;48.414;9.118;2023-06-10T11:05:15;28.90;60.20
1155;DHT22;566;48.414;9.118;2023-06-10T11:07:41;30.60;58.20
1155;DHT22;566;48.414;9.118;2023-06-10T11:10:17;31.90;56.90
1155;DHT22;566;48.414;9.118;2023-06-10T11:15:22;32.50;53.80
1155;DHT22;566;48.414;9.118;2023-06-10T11:23:38;30.20;58.60
1155;DHT22;566;48.414;9.118;2023-06-10T11:31:31;29.20;59.80
1155;DHT22;566;48.414;9.118;2023-06-10T11:34:04;29.30;60.60
1155;DHT22;566;48.414;9.118;2023-06-10T11:36:31;29.30;59.80
1155;DHT22;566;48.414;9.118;2023-06-10T11:38:58;28.30;61.90
1155;DHT22;566;48.414;9.118;2023-06-10T11:41:26;28.00;62.90
1155;DHT22;566;48.414;9.118;2023-06-10T11:43:53;27.80;63.00
1155;DHT22;566;48.414;9.118;2023-06-10T11:46:21;28.60;62.60
1155;DHT22;566;48.414;9.118;2023-06-10T11:48:58;29.50;59.20
1155;DHT22;566;48.414;9.118;2023-06-10T11:51:28;29.80;59.50
1155;DHT22;566;48.414;9.118;2023-06-10T11:53:54;30.30;58.30
1155;DHT22;566;48.414;9.118;2023-06-10T11:59:04;30.00;59.20
1155;DHT22;566;48.414;9.118;2023-06-10T12:01:32;29.60;59.00
1155;DHT22;566;48.414;9.118;2023-06-10T12:04:09;29.50;59.60
1155;DHT22;566;48.414;9.118;2023-06-10T12:06:53;28.50;60.90
1155;DHT22;566;48.414;9.118;2023-06-10T12:09:27;27.70;63.30
1155;DHT22;566;48.414;9.118;2023-06-10T12:11:57;27.40;63.70
1155;DHT22;566;48.414;9.118;2023-06-10T12:20:04;27.30;64.10
1155;DHT22;566;48.414;9.118;2023-06-10T12:22:40;27.40;63.60
1155;DHT22;566;48.414;9.118;2023-06-10T12:25:07;27.70;63.10
1155;DHT22;566;48.414;9.118;2023-06-10T12:27:34;27.80;62.80
1155;DHT22;566;48.414;9.118;2023-06-10T12:30:01;27.40;62.40
1155;DHT22;566;48.414;9.118;2023-06-10T12:32:58;27.20;62.80
1155;DHT22;566;48.414;9.118;2023-06-10T12:35:27;27.30;64.10
1155;DHT22;566;48.414;9.118;2023-06-10T12:37:58;28.30;64.60
1155;DHT22;566;48.414;9.118;2023-06-10T12:40:30;30.00;60.30
1155;DHT22;566;48.414;9.118;2023-06-10T12:42:57;31.40;57.50
1155;DHT22;566;48.414;9.118;2023-06-10T12:45:31;32.30;56.00
1155;DHT22;566;48.414;9.118;2023-06-10T12:48:20;33.20;53.50
1155;DHT22;566;48.414;9.118;2023-06-10T12:50:57;33.40;53.70
1155;DHT22;566;48.414;9.118;2023-06-10T12:53:23;31.80;55.90
1155;DHT22;566;48.414;9.118;2023-06-10T12:55:49;31.10;57.10
1155;DHT22;566;48.414;9.118;2023-06-10T12:58:15;31.20;56.90
1155;DHT22;566;48.414;9.118;2023-06-10T13:00:42;31.70;57.10
1155;DHT22;566;48.414;9.118;2023-06-10T13:03:09;32.60;54.50
1155;DHT22;566;48.414;9.118;2023-06-10T13:05:35;33.10;55.20
1155;DHT22;566;48.414;9.118;2023-06-10T13:08:04;33.10;53.30
1155;DHT22;566;48.414;9.118;2023-06-10T13:10:30;32.50;54.80
1155;DHT22;566;48.414;9.118;2023-06-10T13:12:56;31.60;56.90
1155;DHT22;566;48.414;9.118;2023-06-10T13:15:22;31.00;58.10
1155;DHT22;566;48.414;9.118;2023-06-10T13:17:48;30.50;57.90
1155;DHT22;566;48.414;9.118;2023-06-10T13:20:15;29.60;59.20
1155;DHT22;566;48.414;9.118;2023-06-10T13:22:41;29.10;60.80
1155;DHT22;566;48.414;9.118;2023-06-10T13:25:07;29.00;60.90
1155;DHT22;566;48.414;9.118;2023-06-10T13:27:34;28.90;61.70
1155;DHT22;566;48.414;9.118;2023-06-10T13:29:59;29.10;61.20
1155;DHT22;566;48.414;9.118;2023-06-10T13:32:25;29.20;60.40
1155;DHT22;566;48.414;9.118;2023-06-10T13:34:51;31.00;57.40
1155;DHT22;566;48.414;9.118;2023-06-10T13:37:16;32.80;56.20
1155;DHT22;566;48.414;9.118;2023-06-10T13:39:43;33.90;54.00
1155;DHT22;566;48.414;9.118;2023-06-10T13:42:09;34.30;52.70
1155;DHT22;566;48.414;9.118;2023-06-10T13:44:34;34.90;51.00
1155;DHT22;566;48.414;9.118;2023-06-10T13:47:02;35.60;50.10
1155;DHT22;566;48.414;9.118;2023-06-10T13:49:28;35.70;49.60
1155;DHT22;566;48.414;9.118;2023-06-10T13:51:54;35.10;50.70
1155;DHT22;566;48.414;9.118;2023-06-10T13:54:20;34.80;50.80
1155;DHT22;566;48.414;9.118;2023-06-10T13:56:46;34.30;51.00
1155;DHT22;566;48.414;9.118;2023-06-10T13:59:12;34.40;52.10
1155;DHT22;566;48.414;9.118;2023-06-10T14:01:38;35.40;51.00
1155;DHT22;566;48.414;9.118;2023-06-10T14:04:04;34.80;49.90
1155;DHT22;566;48.414;9.118;2023-06-10T14:06:30;33.40;51.80
1155;DHT22;566;48.414;9.118;2023-06-10T14:08:56;31.90;53.90
1155;DHT22;566;48.414;9.118;2023-06-10T14:11:21;31.00;55.60
1155;DHT22;566;48.414;9.118;2023-06-10T14:13:47;30.20;57.00
1155;DHT22;566;48.414;9.118;2023-06-10T14:16:13;30.00;58.00
1155;DHT22;566;48.414;9.118;2023-06-10T14:18:38;29.40;59.40
1155;DHT22;566;48.414;9.118;2023-06-10T14:21:04;30.20;58.20
1155;DHT22;566;48.414;9.118;2023-06-10T14:23:30;30.40;56.90
1155;DHT22;566;48.414;9.118;2023-06-10T14:25:55;31.70;55.90
1155;DHT22;566;48.414;9.118;2023-06-10T14:28:21;32.10;54.40
1155;DHT22;566;48.414;9.118;2023-06-10T14:30:47;32.50;54.90
1155;DHT22;566;48.414;9.118;2023-06-10T14:33:12;34.00;53.10
1155;DHT22;566;48.414;9.118;2023-06-10T14:35:38;35.00;51.70
1155;DHT22;566;48.414;9.118;2023-06-10T14:38:03;36.10;49.60
1155;DHT22;566;48.414;9.118;2023-06-10T14:40:29;36.00;49.90
1155;DHT22;566;48.414;9.118;2023-06-10T14:42:55;35.80;49.90
1155;DHT22;566;48.414;9.118;2023-06-10T14:45:21;36.10;50.60
1155;DHT22;566;48.414;9.118;2023-06-10T14:47:47;37.00;48.80
1155;DHT22;566;48.414;9.118;2023-06-10T14:50:13;37.70;46.20
1155;DHT22;566;48.414;9.118;2023-06-10T14:52:39;37.80;46.10
1155;DHT22;566;48.414;9.118;2023-06-10T14:55:08;36.60;46.90
1155;DHT22;566;48.414;9.118;2023-06-10T14:57:34;34.70;51.00
1155;DHT22;566;48.414;9.118;2023-06-10T14:59:59;33.00;53.50
1155;DHT22;566;48.414;9.118;2023-06-10T15:02:25;31.90;54.80
1155;DHT22;566;48.414;9.118;2023-06-10T15:04:51;31.20;56.70
1155;DHT22;566;48.414;9.118;2023-06-10T15:07:17;31.10;55.90
1155;DHT22;566;48.414;9.118;2023-06-10T15:09:43;30.90;57.00
1155;DHT22;566;48.414;9.118;2023-06-10T15:12:09;30.90;57.90
1155;DHT22;566;48.414;9.118;2023-06-10T15:14:37;31.00;56.80
1155;DHT22;566;48.414;9.118;2023-06-10T15:17:05;31.10;57.20
1155;DHT22;566;48.414;9.118;2023-06-10T15:19:31;30.60;57.80
1155;DHT22;566;48.414;9.118;2023-06-10T15:21:56;30.00;59.10
1155;DHT22;566;48.414;9.118;2023-06-10T15:24:22;29.70;60.70
1155;DHT22;566;48.414;9.118;2023-06-10T15:26:47;30.40;58.70
1155;DHT22;566;48.414;9.118;2023-06-10T15:29:13;30.30;58.70
1155;DHT22;566;48.414;9.118;2023-06-10T15:31:39;29.60;59.70
1155;DHT22;566;48.414;9.118;2023-06-10T15:34:04;29.00;61.70
1155;DHT22;566;48.414;9.118;2023-06-10T15:36:35;28.50;62.70
1155;DHT22;566;48.414;9.118;2023-06-10T15:39:05;28.30;62.60
1155;DHT22;566;48.414;9.118;2023-06-10T15:41:32;28.10;63.70
1155;DHT22;566;48.414;9.118;2023-06-10T15:43:58;28.00;64.50
1155;DHT22;566;48.414;9.118;2023-06-10T15:46:28;27.90;64.10
1155;DHT22;566;48.414;9.118;2023-06-10T15:48:54;27.80;64.30
1155;DHT22;566;48.414;9.118;2023-06-10T15:51:19;27.50;64.30
1155;DHT22;566;48.414;9.118;2023-06-10T15:53:45;27.30;65.10
1155;DHT22;566;48.414;9.118;2023-06-10T15:56:11;27.00;67.00
1155;DHT22;566;48.414;9.118;2023-06-10T15:58:40;27.00;65.40
1155;DHT22;566;48.414;9.118;2023-06-10T16:01:06;27.80;65.40
1155;DHT22;566;48.414;9.118;2023-06-10T16:03:32;29.30;62.10
1155;DHT22;566;48.414;9.118;2023-06-10T16:05:57;30.60;60.00
1155;DHT22;566;48.414;9.118;2023-06-10T16:08:23;31.30;58.40
1155;DHT22;566;48.414;9.118;2023-06-10T16:10:49;31.10;59.20
1155;DHT22;566;48.414;9.118;2023-06-10T16:13:23;30.10;59.60
1155;DHT22;566;48.414;9.118;2023-06-10T16:15:49;29.90;61.00
1155;DHT22;566;48.414;9.118;2023-06-10T16:18:14;31.20;58.60
1155;DHT22;566;48.414;9.118;2023-06-10T16:20:40;32.40;55.80
1155;DHT22;566;48.414;9.118;2023-06-10T16:23:08;33.40;55.10
1155;DHT22;566;48.414;9.118;2023-06-10T16:25:34;34.10;53.80
1155;DHT22;566;48.414;9.118;2023-06-10T16:28:01;34.70;53.10
1155;DHT22;566;48.414;9.118;2023-06-10T16:30:27;35.40;51.90
1155;DHT22;566;48.414;9.118;2023-06-10T16:32:53;36.00;51.30
1155;DHT22;566;48.414;9.118;2023-06-10T16:35:18;36.60;49.60
1155;DHT22;566;48.414;9.118;2023-06-10T16:37:44;36.80;49.50
1155;DHT22;566;48.414;9.118;2023-06-10T16:40:10;36.80;49.20
1155;DHT22;566;48.414;9.118;2023-06-10T16:42:36;36.30;49.60
1155;DHT22;566;48.414;9.118;2023-06-10T16:45:02;36.50;49.30